»·PEaware :: N364RM KPDX-KOLM

N364RM :: KPDX-KOLM

FLIGHT INFORMATION

Flight Status: Arrived
Operator: Privately registered:
United States
More flights under this callsign
Pilot: Rick M. (29525)
Aircraft: CESSNA 172 SKYHAWK
(C172)
More flights by this aircraft type
Origin: KPDX Portland Intl
United States
Destination: KOLM Olympia
United States
More flights between these airports :: More routes between these airports
Route: KPDX KOLM
File this flight plan on PilotEdge
Remarks: none
Altitude:
(Current/Filed)
4,500ft
Speed:
(Current/Filed)
105kts
Departed: 29-Jun-20 09:56 AM
Arrived: 29-Jun-20 10:51 AM
Distance/Time
Traveled:
84nm/0:55
Distance/Time
To Go:
Arrived

Flight Plot

Page will automatically refresh every two minutes.


Map Options




Map Legend


Flown Route
Filed Route
Departure Airport
Arrival Airport
Navaid (VOR, NDB)
Fix

Horizontal Profiles

Position Reports

Time Latitude Longitude Heading Altitude Ground
Speed
29-Jun-20 09:34 45.585468 -122.580974 28 20ft 0kts
29-Jun-20 09:35 45.585468 -122.580974 28 20ft 0kts
29-Jun-20 09:36 45.585468 -122.580974 28 20ft 0kts
29-Jun-20 09:37 45.585469 -122.580974 28 20ft 0kts
29-Jun-20 09:38 45.585469 -122.580974 28 20ft 0kts
29-Jun-20 09:39 45.585469 -122.580974 28 20ft 0kts
29-Jun-20 09:40 45.585469 -122.580974 28 20ft 0kts
29-Jun-20 09:41 45.586577 -122.581687 293 20ft 8kts
29-Jun-20 09:42 45.586961 -122.582101 17 20ft 0kts
29-Jun-20 09:43 45.586961 -122.582101 17 20ft 0kts
29-Jun-20 09:44 45.587612 -122.582694 322 20ft 8kts
29-Jun-20 09:45 45.587801 -122.582824 338 20ft 0kts
29-Jun-20 09:46 45.588618 -122.585518 294 20ft 13kts
29-Jun-20 09:47 45.589824 -122.588527 303 20ft 14kts
29-Jun-20 09:48 45.591358 -122.592325 296 20ft 6kts
29-Jun-20 09:49 45.593070 -122.596340 275 23ft 0kts
29-Jun-20 09:50 45.593099 -122.596527 292 23ft 0kts
29-Jun-20 09:51 45.594069 -122.597283 306 23ft 0kts
29-Jun-20 09:52 45.594389 -122.597530 23 23ft 0kts
29-Jun-20 09:53 45.594389 -122.597530 23 23ft 0kts
29-Jun-20 09:54 45.594889 -122.596869 88 23ft 6kts
29-Jun-20 09:55 45.589379 -122.582276 121 332ft 75kts
29-Jun-20 09:56 45.578207 -122.555147 110 1117ft 85kts
29-Jun-20 09:57 45.575554 -122.524268 34 1867ft 92kts
29-Jun-20 09:58 45.600646 -122.527639 332 2541ft 98kts
29-Jun-20 09:59 45.627152 -122.540932 333 3139ft 103kts
29-Jun-20 10:00 45.653041 -122.558538 334 3731ft 103kts
29-Jun-20 10:01 45.679137 -122.576150 334 4284ft 104kts
29-Jun-20 10:02 45.708229 -122.589452 346 4494ft 125kts
29-Jun-20 10:03 45.740999 -122.600157 346 4482ft 111kts
29-Jun-20 10:04 45.769968 -122.609538 347 4484ft 104kts
29-Jun-20 10:05 45.798193 -122.617948 349 4484ft 102kts
29-Jun-20 10:06 45.826196 -122.625370 349 4485ft 102kts
29-Jun-20 10:07 45.854246 -122.632712 349 4485ft 102kts
29-Jun-20 10:08 45.882273 -122.639955 349 4485ft 102kts
29-Jun-20 10:09 45.910249 -122.647093 349 4485ft 102kts
29-Jun-20 10:10 45.938318 -122.654163 349 4485ft 102kts
29-Jun-20 10:11 45.966332 -122.661128 349 4485ft 102kts
29-Jun-20 10:12 45.994268 -122.667983 350 4485ft 102kts
29-Jun-20 10:13 46.022455 -122.674719 351 4485ft 102kts
29-Jun-20 10:14 46.050821 -122.680074 352 4485ft 102kts
29-Jun-20 10:15 46.079090 -122.685050 353 4485ft 102kts
29-Jun-20 10:16 46.107453 -122.689453 353 4485ft 102kts
29-Jun-20 10:17 46.135822 -122.693763 353 4485ft 102kts
29-Jun-20 10:18 46.164059 -122.697963 353 4485ft 102kts
29-Jun-20 10:19 46.192481 -122.702099 354 4485ft 102kts
29-Jun-20 10:20 46.220795 -122.706128 354 4485ft 102kts
29-Jun-20 10:21 46.249186 -122.710077 354 4485ft 102kts
29-Jun-20 10:22 46.277512 -122.713924 354 4485ft 102kts
29-Jun-20 10:23 46.305995 -122.717699 354 4485ft 102kts
29-Jun-20 10:25 46.334244 -122.722259 352 4485ft 102kts
29-Jun-20 10:26 46.362652 -122.727298 352 4485ft 102kts
29-Jun-20 10:27 46.390957 -122.732225 352 4485ft 102kts
29-Jun-20 10:28 46.419036 -122.739150 349 4485ft 102kts
29-Jun-20 10:29 46.447207 -122.746801 349 4436ft 107kts
29-Jun-20 10:30 46.477990 -122.755862 347 3944ft 115kts
29-Jun-20 10:31 46.509390 -122.765817 347 3444ft 115kts
29-Jun-20 10:32 46.540836 -122.775681 347 2944ft 116kts
29-Jun-20 10:33 46.571914 -122.785327 347 2532ft 109kts
29-Jun-20 10:34 46.599801 -122.793917 347 2506ft 98kts
29-Jun-20 10:35 46.626211 -122.802085 347 2503ft 96kts
29-Jun-20 10:36 46.651849 -122.810504 347 2502ft 95kts
29-Jun-20 10:37 46.677694 -122.818910 347 2502ft 95kts
29-Jun-20 10:38 46.703451 -122.827202 347 2502ft 95kts
29-Jun-20 10:39 46.729294 -122.835438 347 2502ft 95kts
29-Jun-20 10:40 46.755067 -122.843565 347 2502ft 95kts
29-Jun-20 10:41 46.780858 -122.851611 347 2502ft 95kts
29-Jun-20 10:42 46.807130 -122.859719 348 2392ft 105kts
29-Jun-20 10:42 46.832466 -122.867432 348 2068ft 115kts
29-Jun-20 10:44 46.868393 -122.878250 348 1785ft 110kts
29-Jun-20 10:44 46.892566 -122.888948 338 1604ft 109kts
29-Jun-20 10:45 46.922585 -122.895103 2 1308ft 110kts
29-Jun-20 10:47 46.954367 -122.883499 11 1278ft 94kts
29-Jun-20 10:47 46.976362 -122.876061 20 1211ft 86kts
29-Jun-20 10:48 46.994698 -122.877908 287 882ft 71kts
29-Jun-20 10:49 46.985911 -122.899969 196 450ft 74kts
29-Jun-20 10:50 46.970647 -122.903208 103 201ft 15kts
29-Jun-20 10:51 46.971120 -122.898592 47 201ft 16kts
29-Jun-20 10:52 46.972052 -122.895605 141 203ft 9kts
29-Jun-20 10:53 46.971901 -122.894524 327 204ft 0kts
29-Jun-20 10:54 46.971913 -122.894541 320 204ft 0kts

Navigation Log

Ident Type
Flight plan parsing failed, navigation log unavailable